• Join FlightAware (Why Join?)
  • Login
  • US Flag 
01:21PM EDT


 

Airport Tracker/Info


-or-


 

Live Flight TrackerFlight Track Log ✈ UAL33 ✈ 08-Jul-2013 ✈ KORD - KIAH

Flight Track Log - Related Links

Times and Time Zones

All times are in EDT time to prevent confusion due to time zone crossing. See the UAL33 flight status page for this flight to view local times or setup timezone preferences in your user account.

Time Position Orientation Groundspeed Altitude Reporting Facility
EDT Latitude Longitude Course Direction KTS MPH feet Rate Location/Type
10:12PM 41.9880 -87.9310 320° Northwest 158 182 900  Level FlightAware
10:12PM 41.9960 -87.9420 314° West 148 170 1,600 2,520 Climbing FlightAware
10:12PM 41.9970 -87.9500 280° West 146 168 2,000 1,920 Climbing FlightAware
10:13PM 41.9820 -87.9710 226° Southwest 197 227 2,900 1,680 Climbing FlightAware
10:13PM 41.9440 -87.9670 176° South 261 300 3,900 1,860 Climbing FlightAware
10:14PM 41.9080 -87.9610 173° South 283 326 4,900 1,080 Climbing FlightAware
10:14PM 41.8670 -87.9560 175° South 287 330 5,000 120 Climbing FlightAware
10:14PM 41.8520 -87.9540 174° South 287 330 5,000 1,620 Level FlightAware
10:15PM 41.8140 -87.9480 173° South 290 334 6,200 3,360 Climbing FlightAware
10:16PM 41.7660 -87.9410 174° South 299 344 8,600 4,020 Climbing FlightAware
10:16PM 41.7070 -87.9310 173° South 310 357 11,200 3,480 Climbing FlightAware
10:17PM 41.6500 -87.9260 176° South 317 365 13,400 2,820 Climbing FlightAware
10:17PM 41.5980 -87.9460 196° South 325 374 14,800 1,320 Climbing FlightAware
10:18PM 41.5350 -87.9740 198° South 342 394 15,200 1,380 Climbing FlightAware
10:19PM 41.4720 -88.0010 198° South 368 423 16,800 2,100 Climbing FlightAware
10:20PM 41.3940 -88.0340 198° South 405 466 18,200 2,160 Climbing FlightAware
10:20PM 41.3220 -88.0590 195° South 415 478 19,900 2,340 Climbing FlightAware
10:21PM 41.2380 -88.0870 194° South 433 498 21,500 2,280 Climbing FlightAware
10:22PM 41.1600 -88.1100 193° South 442 509 23,100 2,280 Climbing FlightAware
10:22PM 41.0840 -88.1310 192° South 453 521 24,400 2,100 Climbing FlightAware
10:23PM 40.9980 -88.1550 192° South 462 532 25,900 2,040 Climbing FlightAware
10:24PM 40.9110 -88.1950 199° South 462 532 27,400 1,860 Climbing FlightAware
10:24PM 40.8490 -88.2390 208° Southwest 471 542 28,300 1,860 Climbing FlightAware
10:25PM 40.7630 -88.2990 208° Southwest 477 549 29,800 1,860 Climbing FlightAware
10:26PM 40.6840 -88.3550 208° Southwest 483 556 31,000 1,680 Climbing FlightAware
10:26PM 40.6030 -88.4110 208° Southwest 491 565 32,100 1,440 Climbing FlightAware
10:27PM 40.5270 -88.4650 208° Southwest 499 574 32,900 1,380 Climbing FlightAware
10:28PM 40.4280 -88.5330 208° Southwest 507 583 34,100 1,560 Climbing FlightAware
10:28PM 40.3460 -88.5900 208° Southwest 505 581 35,200 1,800 Climbing FlightAware
10:29PM 40.2790 -88.6360 208° Southwest 498 573 36,300 1,920 Climbing FlightAware
10:30PM 40.1790 -88.7050 208° Southwest 492 566 37,800 1,560 Climbing FlightAware
10:30PM 40.1000 -88.7590 208° Southwest 490 564 38,600 1,140 Climbing FlightAware
10:31PM 40.0350 -88.8040 208° Southwest 492 566 39,200 900 Climbing FlightAware
10:32PM 39.9470 -88.8640 208° Southwest 498 573 39,800 540 Climbing FlightAware
10:32PM 39.8600 -88.9230 208° Southwest 499 574 40,000 120 Climbing FlightAware
10:33PM 39.7700 -88.9850 208° Southwest 494 568 40,000  Level FlightAware
10:34PM 39.6840 -89.0420 207° Southwest 495 570 40,000  Level FlightAware
10:35PM 39.6000 -89.0990 208° Southwest 496 571 40,000  Level FlightAware
10:35PM 39.5160 -89.1560 208° Southwest 496 571 40,000  Level FlightAware
10:36PM 39.4360 -89.2100 208° Southwest 496 571 40,000  Level FlightAware
10:36PM 39.3620 -89.2600 208° Southwest 494 568 40,000  Level FlightAware
10:37PM 39.2790 -89.3150 207° Southwest 494 568 40,000  Level FlightAware
10:38PM 39.1900 -89.3740 207° Southwest 495 570 40,000  Level FlightAware
10:38PM 39.1210 -89.4200 207° Southwest 492 566 40,000  Level FlightAware
10:39PM 39.0290 -89.4810 207° Southwest 488 562 40,000  Level FlightAware
10:40PM 38.9510 -89.5320 207° Southwest 487 560 40,000  Level FlightAware
10:41PM 38.8650 -89.5890 207° Southwest 487 560 40,000  Level FlightAware
10:41PM 38.7810 -89.6450 207° Southwest 487 560 40,000  Level FlightAware
10:43PM 38.6520 -89.7290 207° Southwest 487 560 40,000  Level FlightAware
10:43PM 38.5430 -89.8010 207° Southwest 489 563 40,000  Level FlightAware
10:44PM 38.4560 -89.8570 207° Southwest 490 564 40,000  Level FlightAware
10:45PM 38.3610 -89.9190 207° Southwest 490 564 40,000  Level FlightAware
10:45PM 38.2990 -89.9590 207° Southwest 490 564 40,000  Level FlightAware
10:46PM 38.1830 -90.0340 207° Southwest 490 564 40,000  Level FlightAware
10:47PM 38.1000 -90.0870 207° Southwest 491 565 40,000  Level FlightAware
10:48PM 38.0140 -90.1390 205° Southwest 491 565 40,000  Level FlightAware
10:48PM 37.9520 -90.1780 206° Southwest 491 565 40,000  Level FlightAware
10:49PM 37.8670 -90.2300 206° Southwest 491 565 40,000  Level FlightAware
10:50PM 37.8010 -90.2710 206° Southwest 491 565 40,000  Level FlightAware
10:51PM 37.6630 -90.3650 208° Southwest 488 562 40,000  Level FlightAware
10:51PM 37.6010 -90.4040 206° Southwest 488 562 40,000  Level FlightAware
10:52PM 37.5180 -90.4540 206° Southwest 488 562 40,000  Level FlightAware
10:53PM 37.3990 -90.5330 208° Southwest 489 563 40,000  Level FlightAware
10:53PM 37.3040 -90.5930 207° Southwest 491 565 40,000  Level FlightAware
10:54PM 37.2280 -90.6410 207° Southwest 491 565 40,000  Level FlightAware
10:55PM 37.1350 -90.6990 206° Southwest 491 565 40,000  Level FlightAware
10:56PM 37.0530 -90.7500 206° Southwest 491 565 40,000  Level FlightAware
10:56PM 36.9730 -90.8000 207° Southwest 491 565 40,000  Level FlightAware
10:57PM 36.8660 -90.8660 206° Southwest 492 566 40,000  Level FlightAware
10:58PM 36.7790 -90.9170 205° Southwest 493 567 40,000  Level FlightAware
10:58PM 36.6940 -90.9570 201° Southwest 495 570 40,000  Level FlightAware
10:59PM 36.6160 -90.9930 200° South 493 567 40,000  Level FlightAware
11:00PM 36.5250 -91.0350 200° South 493 567 40,000  Level FlightAware
11:00PM 36.4320 -91.0780 200° South 494 568 40,000  Level FlightAware
11:01PM 36.3460 -91.1170 200° South 494 568 40,000  Level FlightAware
11:02PM 36.2520 -91.1600 200° South 494 568 40,000  Level FlightAware
11:03PM 36.1650 -91.2000 200° South 494 568 40,000  Level FlightAware
11:03PM 36.0960 -91.2310 200° South 494 568 40,000  Level FlightAware
11:04PM 35.9800 -91.2840 200° South 494 568 40,000  Level FlightAware
11:05PM 35.8980 -91.3210 200° South 495 570 40,000  Level FlightAware
11:05PM 35.8010 -91.3650 200° South 493 567 40,000  Level FlightAware
11:06PM 35.7140 -91.4040 200° South 494 568 40,000  Level FlightAware
11:07PM 35.6350 -91.4390 200° South 494 568 40,000  Level FlightAware
11:07PM 35.5480 -91.4780 200° South 494 568 40,000  Level FlightAware
11:08PM 35.4750 -91.5110 200° South 494 568 40,000  Level FlightAware
11:09PM 35.3430 -91.5700 200° South 492 566 40,000  Level FlightAware
11:10PM 35.2750 -91.6000 200° South 492 566 40,000  Level FlightAware
11:10PM 35.1920 -91.6370 200° South 492 566 40,000  Level FlightAware
11:11PM 35.1230 -91.6680 200° South 492 566 40,000  Level FlightAware
11:12PM 35.0540 -91.6990 200° South 492 566 40,000  Level FlightAware
11:12PM 34.9660 -91.7370 199° South 492 566 40,000  Level FlightAware
11:13PM 34.8950 -91.7690 200° South 492 566 40,000  Level FlightAware
11:14PM 34.8280 -91.7990 200° South 492 566 40,000  Level FlightAware
11:15PM 34.7410 -91.8370 200° South 492 566 40,000  Level FlightAware
11:15PM 34.6540 -91.8760 200° South 492 566 40,000  Level FlightAware
11:16PM 34.5880 -91.9050 200° South 492 566 40,000  Level FlightAware
11:17PM 34.5010 -91.9440 200° South 492 566 40,000  Level FlightAware
11:17PM 34.4350 -91.9720 199° South 492 566 40,000  Level FlightAware
11:18PM 34.3480 -92.0110 200° South 492 566 40,000  Level FlightAware
11:19PM 34.0831 -92.1228 200° South 493 567 40,000  Level Memphis Center
11:21PM 33.7917 -92.2503 200° South 486 559 40,000  Level Fort Worth Center
11:22PM 33.6606 -92.3053 199° South 498 573 40,000  Level Fort Worth Center
11:23PM 33.5292 -92.3628 200° South 503 579 40,000  Level Fort Worth Center
11:24PM 33.3936 -92.4178 199° South 508 585 40,000  Level Fort Worth Center
11:25PM 33.2569 -92.4453 190° South 508 585 40,000  Level Fort Worth Center
11:26PM 33.1203 -92.4681 188° South 508 585 40,000  Level Fort Worth Center
11:27PM 32.9856 -92.4928 189° South 503 579 40,000  Level Fort Worth Center
11:34PM 32.0072 -92.7869 189° South 508 585 40,000  Level FlightAware ADS-B
11:35PM 31.9131 -92.8708 217° Southwest 509 586 40,000  Level FlightAware ADS-B
11:36PM 31.8552 -92.9223 217° Southwest 510 587 40,000  Level FlightAware ADS-B
11:36PM 31.7987 -92.9724 217° Southwest 506 582 40,000 -1,380 Level FlightAware ADS-B
11:40PM 31.3783 -93.3429 217° Southwest 507 583 34,100 -1,620 Descending FlightAware ADS-B
11:40PM 31.3217 -93.3926 217° Southwest 504 580 33,200 -1,920 Descending FlightAware ADS-B
11:41PM 31.2644 -93.4430 217° Southwest 498 573 32,200 -1,920 Descending FlightAware ADS-B
11:41PM 31.2094 -93.4911 217° Southwest 493 567 31,300 -1,920 Descending FlightAware ADS-B
11:42PM 31.1535 -93.5400 217° Southwest 487 560 30,300 -1,980 Descending FlightAware ADS-B
11:42PM 31.0991 -93.5873 217° Southwest 480 552 29,300 -1,920 Descending FlightAware ADS-B
11:43PM 31.0454 -93.6339 217° Southwest 473 544 28,400 -1,800 Descending FlightAware ADS-B
11:43PM 30.9932 -93.6791 217° Southwest 466 536 27,500 -1,920 Descending FlightAware ADS-B
11:44PM 30.9414 -93.7242 217° Southwest 460 529 26,500 -1,920 Descending FlightAware ADS-B
11:44PM 30.8901 -93.7684 216° Southwest 453 521 25,600 -1,920 Descending FlightAware ADS-B
11:45PM 30.8400 -93.8118 217° Southwest 446 513 24,600 -1,920 Descending FlightAware ADS-B
11:45PM 30.7899 -93.8551 217° Southwest 441 507 23,700 -1,800 Descending FlightAware ADS-B
11:46PM 30.7409 -93.8975 217° Southwest 434 499 22,800 -1,800 Descending FlightAware ADS-B
11:46PM 30.6931 -93.9386 216° Southwest 428 493 21,900 -1,860 Descending FlightAware ADS-B
11:47PM 30.6376 -93.9862 216° Southwest 420 483 20,800 -1,860 Descending FlightAware ADS-B
11:48PM 30.5906 -94.0268 217° Southwest 417 480 19,900 -1,920 Descending FlightAware ADS-B
11:48PM 30.5442 -94.0666 216° Southwest 406 467 18,900 -1,920 Descending FlightAware ADS-B
11:49PM 30.4536 -94.1441 217° Southwest 396 456 17,000 -1,860 Descending FlightAware ADS-B
11:50PM 30.4094 -94.1817 216° Southwest 390 449 16,100 -1,800 Descending FlightAware ADS-B
11:50PM 30.3659 -94.2190 216° Southwest 383 441 15,200 -1,740 Descending FlightAware ADS-B
11:52PM 30.2398 -94.3265 216° Southwest 362 417 12,600 -1,740 Descending FlightAware ADS-B
11:52PM 30.2213 -94.3422 216° Southwest 359 413 12,200 -1,620 Descending FlightAware ADS-B
11:52PM 30.2152 -94.3482 220° Southwest 357 411 12,100 -1,500 Descending FlightAware ADS-B
11:52PM 30.2115 -94.3525 225° Southwest 355 409 12,000 -1,140 Descending FlightAware ADS-B
11:52PM 30.2002 -94.3718 240° Southwest 346 398 11,800 -720 Descending FlightAware ADS-B
11:52PM 30.1973 -94.3783 243° Southwest 342 394 11,800  Level FlightAware ADS-B
11:52PM 30.1922 -94.3956 252° West 332 382 11,800  Level FlightAware ADS-B
11:53PM 30.1884 -94.4211 260° West 317 365 11,800 -420 Level FlightAware ADS-B
11:53PM 30.1832 -94.4441 255° West 312 359 11,600 -1,260 Descending FlightAware ADS-B
11:53PM 30.1759 -94.4675 250° West 309 356 11,200 -1,020 Descending FlightAware ADS-B
11:54PM 30.1439 -94.5535 247° West 285 328 10,400 -960 Descending FlightAware ADS-B
11:54PM 30.1335 -94.5814 247° West 285 328 10,000 -1,380 Descending FlightAware ADS-B
11:55PM 30.1256 -94.6026 247° West 286 329 9,600 -1,380 Descending FlightAware ADS-B
11:55PM 30.1032 -94.6625 246° West 284 327 8,700 -1,320 Descending FlightAware ADS-B
11:56PM 30.0791 -94.7264 246° West 283 326 7,700 -1,260 Descending FlightAware ADS-B
11:57PM 30.0630 -94.7695 247° West 280 322 7,100 -1,200 Descending FlightAware ADS-B
11:57PM 30.0552 -94.7904 247° West 280 322 6,800 -1,200 Descending FlightAware ADS-B
11:57PM 30.0474 -94.8112 247° West 279 321 6,500 -1,020 Descending FlightAware ADS-B
11:58PM 30.0244 -94.8723 246° West 262 302 5,800 -900 Descending FlightAware ADS-B
11:58PM 30.0172 -94.8914 246° West 255 293 5,600 -960 Descending FlightAware ADS-B
11:59PM 30.0028 -94.9295 246° West 252 290 5,100 -900 Descending FlightAware ADS-B
11:59PM 29.9862 -94.9737 246° West 243 280 4,600 -900 Descending FlightAware ADS-B
11:59PM 29.9842 -94.9798 249° West 240 276 4,500 -720 Descending FlightAware ADS-B
11:59PM 29.9827 -94.9849 251° West 239 275 4,500 -420 Level FlightAware ADS-B
12:00AM 29.9799 -94.9981 258° West 236 272 4,400 -600 Descending FlightAware ADS-B
12:00AM 29.9782 -95.0107 263° West 233 268 4,300 -720 Descending FlightAware ADS-B
12:00AM 29.9776 -95.0193 265° West 231 266 4,200 -1,020 Descending FlightAware ADS-B
12:00AM 29.9774 -95.0326 269° West 231 266 4,000 -900 Descending FlightAware ADS-B
12:00AM 29.9775 -95.0519 270° West 228 262 3,800 -900 Descending FlightAware ADS-B
12:01AM 29.9776 -95.0817 270° West 229 264 3,400 -1,080 Descending FlightAware ADS-B
12:02AM 29.9775 -95.1505 270° West 221 254 2,400 -1,140 Descending FlightAware ADS-B
12:02AM 29.9776 -95.1677 270° West 212 244 2,100 -1,080 Descending FlightAware ADS-B
12:02AM 29.9776 -95.1769 270° West 207 238 2,000 -1,140 Descending FlightAware ADS-B
12:03AM 29.9776 -95.2029 270° West 186 214 1,500 -960 Descending FlightAware ADS-B
12:03AM 29.9776 -95.2255 270° West 167 192 1,200 -780 Descending FlightAware ADS-B
12:03AM 29.9776 -95.2387 270° West 151 174 1,000 -840 Descending FlightAware ADS-B
12:03AM 29.9776 -95.2490 270° West 146 168 800 -840 Descending FlightAware ADS-B
12:04AM 29.9777 -95.2558 271° West 147 169 700 -780 Descending FlightAware ADS-B
12:04AM 29.9776 -95.2677 269° West 146 168 500 -840 Descending FlightAware ADS-B
12:04AM 29.9776 -95.2798 270° West 145 167 300 -780 Descending FlightAware ADS-B
12:04AM 29.9776 -95.2916 270° West 144 166 100 -780 Descending FlightAware ADS-B